Lisbon, NH (03585)

8:15 AM EDT on March 28, 2015 (GMT -0400)
Sugar Hill | | Change Station
CLOSE
Current Station
Personal Weather Station
Location: Sugar Hill, NH
Elevation: 900 ft
Nearby Weather Stations

Elev 900 ft 44.22 °N, 71.80 °W | Updated 14 minutes ago

Overcast
Overcast
27.0 °F
Feels Like 23 °F
N
3.2
Wind Variable Wind from ESE

Today
High -- | Low -- °F
--% Chance of Precip.
Yesterday
High -- | Low -- °F
Precip. -- in
6:36 AM 7:09 PM
First Quarter, 62% visible
Pressure 29.87 in
Visibility 10.0 miles
Clouds Overcast 7500 ft
Windchill 23 °F
Dew Point 17 °F
Humidity 66%
Rainfall 0.00 in
Snow Depth Not available.
UV 0 out of 12
Pollen .60 out of 12
Air Quality Not available.
Flu Activity Not available.
METAR KHIE 281152Z AUTO 00000KT 10SM OVC075 M04/M10 A2983 RMK AO2 SLP115 70002 T10391100 11011 21039 53014

More Conditions Fewer Conditions

Pressure 29.87 in
Visibility 10.0 miles
Clouds Overcast 7500 ft
Windchill 23 °F
Dew Point 17 °F
Humidity 66%
Rainfall 0.00 in
Snow Depth Not available.
UV 0 out of 12
Pollen .60 out of 12
Air Quality Not available.
Flu Activity Not available.
METAR KHIE 281152Z AUTO 00000KT 10SM OVC075 M04/M10 A2983 RMK AO2 SLP115 70002 T10391100 11011 21039 53014

More Conditions Fewer Conditions

10-Day Weather Forecast

Almanac

Astronomy

Mar. 28, 2015 Rise Set
Actual Time
Civil Twilight
Nautical Twilight
Astronomical Twilight
Moon
Length of Visible Light
Length of Day
Tomorrow will be .
, % of the Moon is Illuminated

Today's Extremes

State Highs State Lows

Community

WunderPhotos

Upload Photos

1,808,964 photos uploaded!

WunderBlogs® & News

Nearby

Air Quality

  Air Quality AQ Index Pollutant
Not available.

Snow Depth

Station Depth Elevation

Earthquake Activity

City Distance Mag. Time & Date
Minimum magnitude displayed is 2.5.

Coastal Water Temperatures

Place Temperature

Stations

Nearby Weather Stations

Station Location Temp. Windchill Dew Point Humidity Wind Precip. Elev Updated Type